AirNav   Pilot Hours Calculator
 
 1036 users online  

4WN3 Lakewood Airpark
Lakewood, Wisconsin, USA

GOING TO LAKEWOOD?


FAA INFORMATION EFFECTIVE 07 NOVEMBER 2019

Location

FAA Identifier: 4WN3
Lat/Long: 45-19-55.3867N 088-32-09.5858W
45-19.923112N 088-32.159763W
45.3320519,-88.5359961
(estimated)
Elevation: 1300 ft. / 396 m (estimated)
From city: 2 miles NNW of LAKEWOOD, WI
Time zone: UTC -6 (UTC -5 during Daylight Saving Time)
Zip code: 54138

Airport Operations

Airport use: Private use. Permission required prior to landing
Activation date: 09/2004
Control tower: no
ARTCC: MINNEAPOLIS CENTER
FSS: GREEN BAY FLIGHT SERVICE STATION
Attendance: UNATNDD
Wind indicator: yes
Segmented circle: no

Nearby radio navigation aids

VOR radial/distance  VOR name  Freq  Var
IMTr214/34.1IRON MOUNTAIN VOR/DME111.2002W
MNMr284/38.6MENOMINEE VOR/DME109.6000E

Airport Services

Runway Information

Runway 9/27

Dimensions: 2500 x 150 ft. / 762 x 46 m
Surface: turf
RUNWAY 9  RUNWAY 27
Traffic pattern: leftleft

Airport Ownership and Management from official FAA records

Ownership: Privately-owned
Owner: LAKEWOOD AIRPARK LLC
15605 MAIDEN LAKE RD
MOUNTAIN, WI 54149
Manager: PHIL HARTMAN
15605 MAIDEN LAKE RD
MOUNTAIN, WI 54149
Phone 715-850-1206

Additional Remarks

FOR CD CTC MINNEAPOLIS ARTCC AT 651-463-5588.

Instrument Procedures

There are no published instrument procedures at 4WN3.

Some nearby airports with instrument procedures:

Y55 - Crandon/Steve Conway Municipal Airport (20 nm NW)
KAIG - Langlade County Airport (27 nm SW)
KEZS - Shawano Municipal Airport (33 nm S)
KIMT - Ford Airport (34 nm NE)
KOCQ - Oconto-J Douglas Bake Municipal Airport (38 nm SE)
 
Loc | Ops | Rwys | IFR | FBO | Links
Com | Nav | Svcs | Stats | Notes
Area around 4WN3 (Lakewood Airpark)
 
Road maps at: MapQuest Bing Google
 
Aerial photo
WARNING: Photo may not be current or correct
Aerial photo of 4WN3 (Lakewood Airpark)
Photo by William Knauth
looking west.

Do you have a better or more recent aerial photo of Lakewood Airpark that you would like to share? If so, please send us your photo.

 
Sectional chart

 
Airport distance calculator
Flying to Lakewood Airpark? Find the distance to fly.

From to 4WN3

Sunrise and sunset
Times for 21-Nov-2019
 Local
(UTC-6)
 Zulu
(UTC)
Morning civil twilight06:2912:29
Sunrise07:0213:02
Sunset16:1822:18
Evening civil twilight16:5122:51

Current date and time
Zulu (UTC)  22-Nov-2019 02:39:18
Local (UTC-6)  21-Nov-2019 20:39:18
 
METAR
KAIG 
32nm SW 
220215Z AUTO 33015G23KT 10SM OVC018 M03/M05 A2991 RMK AO2 T10261052
KEZS 
33nm S 
715-526-2967
220215Z AUTO 31010G17KT 10SM OVC024 02/M02 A2991 RMK AO2 T00161025
KIMT 
34nm NE 
220154Z AUTO 33012G24KT 10SM SCT021 BKN028 OVC039 M01/M06 A2985 RMK AO2 PK WND 32032/0100 SNE38 SLP120 P0000 T10111056
KOCQ 
38nm SE 
220215Z AUTO 31008KT 10SM BKN030 BKN050 OVC070 01/M03 A2989 RMK AO1 T00071034
KMNM 
41nm E 
220156Z AUTO 32008KT 8SM -SN FEW015 BKN037 OVC080 00/M02 A2987 RMK AO2 RAE06UPB06E07SNB07 SLP118 P0000 T00001022 FZRANO $
KRHI 
44nm NW 
220153Z AUTO 32009G19KT 300V360 10SM OVC012 M04/M07 A2992 RMK AO2 SNE26 SLP152 P0000 T10441072
KCLI 
45nm S 
220215Z AUTO 33013G21KT 10SM OVC024 01/M04 A2992 RMK AO2 T00101040
KEGV 
47nm NW 
220215Z AUTO 31012G15KT 7SM -SN SCT013 OVC020 M05/M06 A2992 RMK AO2 T10461061
TAF
KRHI 
44nm NW 
212122Z 2121/2218 34013G20KT 6SM -SN BR SCT015 OVC025 TEMPO 2121/2122 4SM -FZDZSN BKN015 FM212200 33013G23KT P6SM -FZDZSN OVC015 FM220000 32010G16KT P6SM -FZDZ BKN016 FM220500 32007KT P6SM BKN022 FM221200 29005KT P6SM SCT025 FM221600 25008G15KT P6SM FEW030
NOTAMs
Click for the latest NOTAMs
NOTAMs are issued by the DoD/FAA and will open in a separate window not controlled by AirNav.

 

 
 

Would you like to see your business listed on this page?

 If your business provides an interesting product or service to pilots, flight crews, aircraft, or users of the Lakewood Airpark, you should consider listing it here.  To start the listing process, click on the button below
 
Add a business
 

Other Pages about Lakewood Airpark

Update a link
 
Copyright © AirNav, LLC. All rights reserved. Privacy Policy  Contact